sensor_id;sensor_type;location;lat;lon;timestamp;P1;durP1;ratioP1;P2;durP2;ratioP2
4758;SDS011;2393;50.560;12.636;2023-06-22T00:00:34;2.00;;;1.90;;
4758;SDS011;2393;50.560;12.636;2023-06-22T00:03:02;6.53;;;2.80;;
4758;SDS011;2393;50.560;12.636;2023-06-22T00:05:30;3.50;;;3.10;;
4758;SDS011;2393;50.560;12.636;2023-06-22T00:08:01;5.50;;;3.00;;
4758;SDS011;2393;50.560;12.636;2023-06-22T00:10:31;3.50;;;3.20;;
4758;SDS011;2393;50.560;12.636;2023-06-22T00:13:00;3.50;;;3.17;;
4758;SDS011;2393;50.560;12.636;2023-06-22T00:15:28;3.50;;;3.20;;
4758;SDS011;2393;50.560;12.636;2023-06-22T00:17:57;2.40;;;2.30;;
4758;SDS011;2393;50.560;12.636;2023-06-22T00:20:25;2.47;;;2.37;;
4758;SDS011;2393;50.560;12.636;2023-06-22T00:22:57;3.03;;;2.73;;
4758;SDS011;2393;50.560;12.636;2023-06-22T00:25:26;2.97;;;2.77;;
4758;SDS011;2393;50.560;12.636;2023-06-22T00:27:55;2.50;;;2.30;;
4758;SDS011;2393;50.560;12.636;2023-06-22T00:30:24;3.43;;;2.87;;
4758;SDS011;2393;50.560;12.636;2023-06-22T00:32:59;2.53;;;2.43;;
4758;SDS011;2393;50.560;12.636;2023-06-22T00:35:28;4.27;;;2.87;;
4758;SDS011;2393;50.560;12.636;2023-06-22T00:37:56;6.63;;;3.43;;
4758;SDS011;2393;50.560;12.636;2023-06-22T00:40:27;4.07;;;3.60;;
4758;SDS011;2393;50.560;12.636;2023-06-22T00:42:58;3.70;;;3.37;;
4758;SDS011;2393;50.560;12.636;2023-06-22T00:45:29;3.20;;;2.77;;
4758;SDS011;2393;50.560;12.636;2023-06-22T00:47:58;6.80;;;3.40;;
4758;SDS011;2393;50.560;12.636;2023-06-22T00:50:27;5.53;;;3.77;;
4758;SDS011;2393;50.560;12.636;2023-06-22T00:53:01;4.80;;;3.67;;
4758;SDS011;2393;50.560;12.636;2023-06-22T00:55:35;4.33;;;3.93;;
4758;SDS011;2393;50.560;12.636;2023-06-22T00:58:06;3.97;;;3.67;;
4758;SDS011;2393;50.560;12.636;2023-06-22T01:00:38;7.70;;;2.80;;
4758;SDS011;2393;50.560;12.636;2023-06-22T01:03:08;3.27;;;2.90;;
4758;SDS011;2393;50.560;12.636;2023-06-22T01:05:37;3.63;;;3.33;;
4758;SDS011;2393;50.560;12.636;2023-06-22T01:08:09;3.73;;;3.53;;
4758;SDS011;2393;50.560;12.636;2023-06-22T01:10:46;2.70;;;2.50;;
4758;SDS011;2393;50.560;12.636;2023-06-22T01:13:22;3.47;;;3.20;;
4758;SDS011;2393;50.560;12.636;2023-06-22T01:15:59;3.40;;;3.20;;
4758;SDS011;2393;50.560;12.636;2023-06-22T01:18:31;6.60;;;2.50;;
4758;SDS011;2393;50.560;12.636;2023-06-22T01:21:03;2.50;;;2.40;;
4758;SDS011;2393;50.560;12.636;2023-06-22T01:23:50;3.43;;;3.20;;
4758;SDS011;2393;50.560;12.636;2023-06-22T01:26:28;3.27;;;2.97;;
4758;SDS011;2393;50.560;12.636;2023-06-22T01:29:06;4.27;;;3.13;;
4758;SDS011;2393;50.560;12.636;2023-06-22T01:31:38;4.10;;;2.93;;
4758;SDS011;2393;50.560;12.636;2023-06-22T01:34:08;7.00;;;3.57;;
4758;SDS011;2393;50.560;12.636;2023-06-22T01:36:37;2.90;;;2.80;;
4758;SDS011;2393;50.560;12.636;2023-06-22T01:39:06;3.70;;;3.40;;
4758;SDS011;2393;50.560;12.636;2023-06-22T01:41:36;3.90;;;3.50;;
4758;SDS011;2393;50.560;12.636;2023-06-22T01:44:06;2.57;;;2.40;;
4758;SDS011;2393;50.560;12.636;2023-06-22T01:46:36;2.70;;;2.50;;
4758;SDS011;2393;50.560;12.636;2023-06-22T01:49:06;2.37;;;2.27;;
4758;SDS011;2393;50.560;12.636;2023-06-22T01:51:35;2.33;;;2.23;;
4758;SDS011;2393;50.560;12.636;2023-06-22T01:54:05;1.87;;;1.77;;
4758;SDS011;2393;50.560;12.636;2023-06-22T01:56:33;2.30;;;2.20;;
4758;SDS011;2393;50.560;12.636;2023-06-22T01:59:04;3.37;;;2.13;;
4758;SDS011;2393;50.560;12.636;2023-06-22T02:01:40;2.30;;;2.20;;
4758;SDS011;2393;50.560;12.636;2023-06-22T02:04:12;3.80;;;2.83;;
4758;SDS011;2393;50.560;12.636;2023-06-22T02:06:47;2.27;;;2.17;;
4758;SDS011;2393;50.560;12.636;2023-06-22T02:09:19;2.70;;;2.60;;
4758;SDS011;2393;50.560;12.636;2023-06-22T02:11:50;4.13;;;2.53;;
4758;SDS011;2393;50.560;12.636;2023-06-22T02:14:23;2.70;;;2.50;;
4758;SDS011;2393;50.560;12.636;2023-06-22T02:16:53;2.70;;;2.50;;
4758;SDS011;2393;50.560;12.636;2023-06-22T02:19:26;2.50;;;2.30;;
4758;SDS011;2393;50.560;12.636;2023-06-22T02:21:54;2.47;;;2.37;;
4758;SDS011;2393;50.560;12.636;2023-06-22T02:24:22;2.37;;;2.27;;
4758;SDS011;2393;50.560;12.636;2023-06-22T02:26:50;2.27;;;2.17;;
4758;SDS011;2393;50.560;12.636;2023-06-22T02:29:19;4.10;;;2.67;;
4758;SDS011;2393;50.560;12.636;2023-06-22T02:31:49;2.70;;;2.50;;
4758;SDS011;2393;50.560;12.636;2023-06-22T02:34:19;4.80;;;2.90;;
4758;SDS011;2393;50.560;12.636;2023-06-22T02:36:47;3.10;;;2.77;;
4758;SDS011;2393;50.560;12.636;2023-06-22T02:39:19;3.10;;;2.90;;
4758;SDS011;2393;50.560;12.636;2023-06-22T02:41:49;2.73;;;2.53;;
4758;SDS011;2393;50.560;12.636;2023-06-22T02:44:18;4.17;;;3.67;;
4758;SDS011;2393;50.560;12.636;2023-06-22T02:46:51;7.60;;;3.57;;
4758;SDS011;2393;50.560;12.636;2023-06-22T02:49:20;4.17;;;3.77;;
4758;SDS011;2393;50.560;12.636;2023-06-22T02:51:49;3.47;;;3.13;;
4758;SDS011;2393;50.560;12.636;2023-06-22T02:54:20;4.40;;;3.93;;
4758;SDS011;2393;50.560;12.636;2023-06-22T02:56:50;3.20;;;3.00;;
4758;SDS011;2393;50.560;12.636;2023-06-22T02:59:20;2.70;;;2.50;;
4758;SDS011;2393;50.560;12.636;2023-06-22T03:01:55;3.07;;;2.87;;
4758;SDS011;2393;50.560;12.636;2023-06-22T03:04:27;2.60;;;2.50;;
4758;SDS011;2393;50.560;12.636;2023-06-22T03:06:57;4.80;;;3.57;;
4758;SDS011;2393;50.560;12.636;2023-06-22T03:09:28;3.50;;;3.20;;
4758;SDS011;2393;50.560;12.636;2023-06-22T03:11:57;4.40;;;3.63;;
4758;SDS011;2393;50.560;12.636;2023-06-22T03:14:33;3.43;;;3.10;;
4758;SDS011;2393;50.560;12.636;2023-06-22T03:17:04;3.60;;;3.30;;
4758;SDS011;2393;50.560;12.636;2023-06-22T03:19:32;4.10;;;3.50;;
4758;SDS011;2393;50.560;12.636;2023-06-22T03:22:01;2.80;;;2.60;;
4758;SDS011;2393;50.560;12.636;2023-06-22T03:24:29;3.27;;;3.00;;
4758;SDS011;2393;50.560;12.636;2023-06-22T03:26:57;3.87;;;3.57;;
4758;SDS011;2393;50.560;12.636;2023-06-22T03:29:26;3.50;;;2.97;;
4758;SDS011;2393;50.560;12.636;2023-06-22T03:31:57;5.30;;;3.27;;
4758;SDS011;2393;50.560;12.636;2023-06-22T03:34:27;4.37;;;3.73;;
4758;SDS011;2393;50.560;12.636;2023-06-22T03:36:55;3.50;;;3.20;;
4758;SDS011;2393;50.560;12.636;2023-06-22T03:39:23;3.63;;;3.33;;
4758;SDS011;2393;50.560;12.636;2023-06-22T03:41:52;4.17;;;3.77;;
4758;SDS011;2393;50.560;12.636;2023-06-22T03:44:20;3.70;;;3.40;;
4758;SDS011;2393;50.560;12.636;2023-06-22T03:46:48;3.60;;;3.37;;
4758;SDS011;2393;50.560;12.636;2023-06-22T03:49:19;3.40;;;3.20;;
4758;SDS011;2393;50.560;12.636;2023-06-22T03:51:49;3.47;;;3.20;;
4758;SDS011;2393;50.560;12.636;2023-06-22T03:54:17;4.23;;;3.80;;
4758;SDS011;2393;50.560;12.636;2023-06-22T03:56:47;2.87;;;2.67;;
4758;SDS011;2393;50.560;12.636;2023-06-22T03:59:15;3.27;;;2.97;;
4758;SDS011;2393;50.560;12.636;2023-06-22T04:01:45;7.10;;;3.43;;
4758;SDS011;2393;50.560;12.636;2023-06-22T04:04:13;3.80;;;3.30;;
4758;SDS011;2393;50.560;12.636;2023-06-22T04:06:41;5.13;;;4.60;;
4758;SDS011;2393;50.560;12.636;2023-06-22T04:09:12;4.93;;;4.43;;
4758;SDS011;2393;50.560;12.636;2023-06-22T04:11:40;6.00;;;3.87;;
4758;SDS011;2393;50.560;12.636;2023-06-22T04:14:08;5.47;;;4.93;;
4758;SDS011;2393;50.560;12.636;2023-06-22T04:16:36;5.63;;;4.00;;
4758;SDS011;2393;50.560;12.636;2023-06-22T04:19:04;5.47;;;4.90;;
4758;SDS011;2393;50.560;12.636;2023-06-22T04:21:32;8.10;;;5.50;;
4758;SDS011;2393;50.560;12.636;2023-06-22T04:24:00;11.33;;;7.40;;
4758;SDS011;2393;50.560;12.636;2023-06-22T04:26:30;7.57;;;6.10;;
4758;SDS011;2393;50.560;12.636;2023-06-22T04:29:03;11.73;;;7.60;;
4758;SDS011;2393;50.560;12.636;2023-06-22T04:31:32;10.90;;;8.53;;
4758;SDS011;2393;50.560;12.636;2023-06-22T04:34:03;12.13;;;8.87;;
4758;SDS011;2393;50.560;12.636;2023-06-22T04:36:34;9.47;;;6.40;;
4758;SDS011;2393;50.560;12.636;2023-06-22T04:39:04;11.67;;;7.30;;
4758;SDS011;2393;50.560;12.636;2023-06-22T04:41:37;10.00;;;7.30;;
4758;SDS011;2393;50.560;12.636;2023-06-22T04:44:13;9.23;;;7.10;;
4758;SDS011;2393;50.560;12.636;2023-06-22T04:46:50;9.20;;;8.00;;
4758;SDS011;2393;50.560;12.636;2023-06-22T04:49:20;11.37;;;8.47;;
4758;SDS011;2393;50.560;12.636;2023-06-22T04:51:49;10.67;;;8.70;;
4758;SDS011;2393;50.560;12.636;2023-06-22T04:54:19;12.80;;;8.70;;
4758;SDS011;2393;50.560;12.636;2023-06-22T04:56:49;11.83;;;8.30;;
4758;SDS011;2393;50.560;12.636;2023-06-22T04:59:22;14.10;;;7.93;;
4758;SDS011;2393;50.560;12.636;2023-06-22T05:01:54;7.57;;;6.87;;
4758;SDS011;2393;50.560;12.636;2023-06-22T05:04:22;10.50;;;8.43;;
4758;SDS011;2393;50.560;12.636;2023-06-22T05:06:51;10.03;;;7.00;;
4758;SDS011;2393;50.560;12.636;2023-06-22T05:09:20;9.70;;;7.33;;
4758;SDS011;2393;50.560;12.636;2023-06-22T05:11:50;12.60;;;7.27;;
4758;SDS011;2393;50.560;12.636;2023-06-22T05:14:19;9.50;;;6.70;;
4758;SDS011;2393;50.560;12.636;2023-06-22T05:16:48;8.30;;;6.97;;
4758;SDS011;2393;50.560;12.636;2023-06-22T05:19:18;10.43;;;6.80;;
4758;SDS011;2393;50.560;12.636;2023-06-22T05:21:48;7.70;;;7.00;;
4758;SDS011;2393;50.560;12.636;2023-06-22T05:24:16;7.47;;;6.53;;
4758;SDS011;2393;50.560;12.636;2023-06-22T05:26:46;6.63;;;5.87;;
4758;SDS011;2393;50.560;12.636;2023-06-22T05:29:16;8.50;;;7.07;;
4758;SDS011;2393;50.560;12.636;2023-06-22T05:31:46;10.37;;;8.53;;
4758;SDS011;2393;50.560;12.636;2023-06-22T05:34:14;10.30;;;7.90;;
4758;SDS011;2393;50.560;12.636;2023-06-22T05:36:42;16.30;;;9.00;;
4758;SDS011;2393;50.560;12.636;2023-06-22T05:39:12;10.60;;;8.57;;
4758;SDS011;2393;50.560;12.636;2023-06-22T05:41:41;11.17;;;8.20;;
4758;SDS011;2393;50.560;12.636;2023-06-22T05:44:11;9.90;;;6.23;;
4758;SDS011;2393;50.560;12.636;2023-06-22T05:46:41;9.73;;;7.97;;
4758;SDS011;2393;50.560;12.636;2023-06-22T05:49:11;8.63;;;7.30;;
4758;SDS011;2393;50.560;12.636;2023-06-22T05:51:40;9.17;;;7.03;;
4758;SDS011;2393;50.560;12.636;2023-06-22T05:54:09;9.67;;;7.90;;
4758;SDS011;2393;50.560;12.636;2023-06-22T05:56:39;16.83;;;7.17;;
4758;SDS011;2393;50.560;12.636;2023-06-22T05:59:07;8.30;;;5.97;;
4758;SDS011;2393;50.560;12.636;2023-06-22T06:01:35;9.87;;;6.80;;
4758;SDS011;2393;50.560;12.636;2023-06-22T06:04:05;7.50;;;6.10;;
4758;SDS011;2393;50.560;12.636;2023-06-22T06:06:34;9.03;;;6.83;;
4758;SDS011;2393;50.560;12.636;2023-06-22T06:09:03;11.50;;;6.90;;
4758;SDS011;2393;50.560;12.636;2023-06-22T06:11:31;6.97;;;5.47;;
4758;SDS011;2393;50.560;12.636;2023-06-22T06:13:59;6.57;;;5.10;;
4758;SDS011;2393;50.560;12.636;2023-06-22T06:16:27;5.63;;;4.80;;
4758;SDS011;2393;50.560;12.636;2023-06-22T06:18:55;9.07;;;5.07;;
4758;SDS011;2393;50.560;12.636;2023-06-22T06:21:26;7.37;;;5.00;;
4758;SDS011;2393;50.560;12.636;2023-06-22T06:23:56;6.33;;;5.20;;
4758;SDS011;2393;50.560;12.636;2023-06-22T06:26:25;5.80;;;4.77;;
4758;SDS011;2393;50.560;12.636;2023-06-22T06:28:56;6.03;;;5.37;;
4758;SDS011;2393;50.560;12.636;2023-06-22T06:31:24;5.97;;;5.40;;
4758;SDS011;2393;50.560;12.636;2023-06-22T06:33:55;6.63;;;4.73;;
4758;SDS011;2393;50.560;12.636;2023-06-22T06:36:24;6.97;;;4.73;;
4758;SDS011;2393;50.560;12.636;2023-06-22T06:38:53;5.07;;;4.63;;
4758;SDS011;2393;50.560;12.636;2023-06-22T06:41:21;11.87;;;5.47;;
4758;SDS011;2393;50.560;12.636;2023-06-22T06:43:49;8.27;;;5.90;;
4758;SDS011;2393;50.560;12.636;2023-06-22T06:46:18;9.13;;;6.13;;
4758;SDS011;2393;50.560;12.636;2023-06-22T06:48:46;11.97;;;6.40;;
4758;SDS011;2393;50.560;12.636;2023-06-22T06:51:14;6.57;;;5.87;;
4758;SDS011;2393;50.560;12.636;2023-06-22T06:53:43;9.77;;;6.73;;
4758;SDS011;2393;50.560;12.636;2023-06-22T06:56:12;10.60;;;6.50;;
4758;SDS011;2393;50.560;12.636;2023-06-22T06:58:40;7.53;;;6.43;;
4758;SDS011;2393;50.560;12.636;2023-06-22T07:01:11;10.03;;;6.90;;
4758;SDS011;2393;50.560;12.636;2023-06-22T07:03:40;10.57;;;7.67;;
4758;SDS011;2393;50.560;12.636;2023-06-22T07:06:08;7.47;;;6.23;;
4758;SDS011;2393;50.560;12.636;2023-06-22T07:08:36;8.33;;;7.53;;
4758;SDS011;2393;50.560;12.636;2023-06-22T07:11:06;7.77;;;5.63;;
4758;SDS011;2393;50.560;12.636;2023-06-22T07:13:35;8.80;;;5.90;;
4758;SDS011;2393;50.560;12.636;2023-06-22T07:16:03;7.83;;;6.27;;
4758;SDS011;2393;50.560;12.636;2023-06-22T07:18:31;6.93;;;6.23;;
4758;SDS011;2393;50.560;12.636;2023-06-22T07:20:59;7.40;;;6.40;;
4758;SDS011;2393;50.560;12.636;2023-06-22T07:23:27;6.50;;;5.80;;
4758;SDS011;2393;50.560;12.636;2023-06-22T07:25:55;13.93;;;6.30;;
4758;SDS011;2393;50.560;12.636;2023-06-22T07:28:23;9.83;;;6.00;;
4758;SDS011;2393;50.560;12.636;2023-06-22T07:30:53;8.23;;;5.30;;
4758;SDS011;2393;50.560;12.636;2023-06-22T07:33:21;8.43;;;5.57;;
4758;SDS011;2393;50.560;12.636;2023-06-22T07:35:49;6.00;;;5.40;;
4758;SDS011;2393;50.560;12.636;2023-06-22T07:38:18;8.30;;;6.10;;
4758;SDS011;2393;50.560;12.636;2023-06-22T07:40:47;5.80;;;4.97;;
4758;SDS011;2393;50.560;12.636;2023-06-22T07:43:15;7.47;;;6.07;;
4758;SDS011;2393;50.560;12.636;2023-06-22T07:45:47;8.33;;;6.10;;
4758;SDS011;2393;50.560;12.636;2023-06-22T07:48:20;9.60;;;6.03;;
4758;SDS011;2393;50.560;12.636;2023-06-22T07:50:49;12.40;;;5.70;;
4758;SDS011;2393;50.560;12.636;2023-06-22T07:53:17;7.17;;;5.73;;
4758;SDS011;2393;50.560;12.636;2023-06-22T07:55:45;6.50;;;5.50;;
4758;SDS011;2393;50.560;12.636;2023-06-22T07:58:15;10.67;;;5.23;;
4758;SDS011;2393;50.560;12.636;2023-06-22T08:00:45;5.40;;;5.00;;
4758;SDS011;2393;50.560;12.636;2023-06-22T08:03:15;9.83;;;6.00;;
4758;SDS011;2393;50.560;12.636;2023-06-22T08:05:45;6.03;;;5.27;;
4758;SDS011;2393;50.560;12.636;2023-06-22T08:08:13;9.20;;;6.60;;
4758;SDS011;2393;50.560;12.636;2023-06-22T08:10:41;7.47;;;5.83;;
4758;SDS011;2393;50.560;12.636;2023-06-22T08:13:09;6.63;;;6.00;;
4758;SDS011;2393;50.560;12.636;2023-06-22T08:15:37;5.63;;;4.87;;
4758;SDS011;2393;50.560;12.636;2023-06-22T08:18:06;13.27;;;5.50;;
4758;SDS011;2393;50.560;12.636;2023-06-22T08:20:34;8.10;;;5.20;;
4758;SDS011;2393;50.560;12.636;2023-06-22T08:23:03;5.93;;;5.33;;
4758;SDS011;2393;50.560;12.636;2023-06-22T08:25:32;6.57;;;5.77;;
4758;SDS011;2393;50.560;12.636;2023-06-22T08:28:01;7.33;;;5.90;;
4758;SDS011;2393;50.560;12.636;2023-06-22T08:30:29;6.67;;;5.50;;
4758;SDS011;2393;50.560;12.636;2023-06-22T08:32:58;6.33;;;5.40;;
4758;SDS011;2393;50.560;12.636;2023-06-22T08:35:26;5.93;;;5.43;;
4758;SDS011;2393;50.560;12.636;2023-06-22T08:37:54;7.07;;;5.33;;
4758;SDS011;2393;50.560;12.636;2023-06-22T08:40:24;7.00;;;5.30;;
4758;SDS011;2393;50.560;12.636;2023-06-22T08:42:53;7.03;;;6.07;;
4758;SDS011;2393;50.560;12.636;2023-06-22T08:45:21;6.67;;;4.70;;
4758;SDS011;2393;50.560;12.636;2023-06-22T08:47:49;6.60;;;5.33;;
4758;SDS011;2393;50.560;12.636;2023-06-22T08:50:17;6.40;;;5.80;;
4758;SDS011;2393;50.560;12.636;2023-06-22T08:52:45;8.67;;;6.20;;
4758;SDS011;2393;50.560;12.636;2023-06-22T08:55:14;9.60;;;5.77;;
4758;SDS011;2393;50.560;12.636;2023-06-22T08:57:44;8.83;;;5.83;;
4758;SDS011;2393;50.560;12.636;2023-06-22T09:00:12;7.80;;;5.10;;
4758;SDS011;2393;50.560;12.636;2023-06-22T09:02:45;6.50;;;5.63;;
4758;SDS011;2393;50.560;12.636;2023-06-22T09:05:14;5.70;;;5.10;;
4758;SDS011;2393;50.560;12.636;2023-06-22T09:07:43;6.53;;;5.70;;
4758;SDS011;2393;50.560;12.636;2023-06-22T09:10:12;8.10;;;5.53;;
4758;SDS011;2393;50.560;12.636;2023-06-22T09:12:40;7.00;;;5.80;;
4758;SDS011;2393;50.560;12.636;2023-06-22T09:15:10;7.73;;;5.80;;
4758;SDS011;2393;50.560;12.636;2023-06-22T09:17:43;8.00;;;5.93;;
4758;SDS011;2393;50.560;12.636;2023-06-22T09:20:13;11.00;;;6.43;;
4758;SDS011;2393;50.560;12.636;2023-06-22T09:22:42;6.90;;;5.27;;
4758;SDS011;2393;50.560;12.636;2023-06-22T09:25:10;8.73;;;6.10;;
4758;SDS011;2393;50.560;12.636;2023-06-22T09:27:39;8.23;;;6.17;;
4758;SDS011;2393;50.560;12.636;2023-06-22T09:30:07;5.63;;;5.13;;
4758;SDS011;2393;50.560;12.636;2023-06-22T09:32:37;7.27;;;5.67;;
4758;SDS011;2393;50.560;12.636;2023-06-22T09:35:06;11.33;;;5.10;;
4758;SDS011;2393;50.560;12.636;2023-06-22T09:37:42;6.83;;;5.20;;
4758;SDS011;2393;50.560;12.636;2023-06-22T09:40:10;5.70;;;5.17;;
4758;SDS011;2393;50.560;12.636;2023-06-22T09:42:40;4.63;;;4.23;;
4758;SDS011;2393;50.560;12.636;2023-06-22T09:45:10;5.07;;;4.40;;
4758;SDS011;2393;50.560;12.636;2023-06-22T09:47:38;5.87;;;4.47;;
4758;SDS011;2393;50.560;12.636;2023-06-22T09:50:07;4.67;;;4.33;;
4758;SDS011;2393;50.560;12.636;2023-06-22T09:52:35;5.40;;;4.90;;
4758;SDS011;2393;50.560;12.636;2023-06-22T09:55:07;4.70;;;4.30;;
4758;SDS011;2393;50.560;12.636;2023-06-22T09:57:35;9.10;;;4.97;;
4758;SDS011;2393;50.560;12.636;2023-06-22T10:00:04;5.13;;;4.70;;
4758;SDS011;2393;50.560;12.636;2023-06-22T10:02:36;5.67;;;4.63;;
4758;SDS011;2393;50.560;12.636;2023-06-22T10:05:05;6.13;;;4.37;;
4758;SDS011;2393;50.560;12.636;2023-06-22T10:07:34;5.40;;;4.57;;
4758;SDS011;2393;50.560;12.636;2023-06-22T10:10:06;5.30;;;4.57;;
4758;SDS011;2393;50.560;12.636;2023-06-22T10:12:35;6.73;;;5.10;;
4758;SDS011;2393;50.560;12.636;2023-06-22T10:15:03;5.70;;;5.10;;
4758;SDS011;2393;50.560;12.636;2023-06-22T10:17:32;7.90;;;4.50;;
4758;SDS011;2393;50.560;12.636;2023-06-22T10:20:02;8.30;;;4.90;;
4758;SDS011;2393;50.560;12.636;2023-06-22T10:22:38;5.03;;;4.53;;
4758;SDS011;2393;50.560;12.636;2023-06-22T10:25:07;6.23;;;5.57;;
4758;SDS011;2393;50.560;12.636;2023-06-22T10:27:35;11.20;;;5.73;;
4758;SDS011;2393;50.560;12.636;2023-06-22T10:30:06;5.30;;;4.80;;
4758;SDS011;2393;50.560;12.636;2023-06-22T10:32:37;7.97;;;5.33;;
4758;SDS011;2393;50.560;12.636;2023-06-22T10:35:07;6.10;;;4.47;;
4758;SDS011;2393;50.560;12.636;2023-06-22T10:37:37;10.60;;;4.63;;
4758;SDS011;2393;50.560;12.636;2023-06-22T10:40:05;5.07;;;4.67;;
4758;SDS011;2393;50.560;12.636;2023-06-22T10:42:35;5.73;;;4.63;;
4758;SDS011;2393;50.560;12.636;2023-06-22T10:45:03;4.67;;;4.37;;
4758;SDS011;2393;50.560;12.636;2023-06-22T10:47:32;8.37;;;4.87;;
4758;SDS011;2393;50.560;12.636;2023-06-22T10:50:01;6.60;;;3.87;;
4758;SDS011;2393;50.560;12.636;2023-06-22T10:52:30;4.50;;;4.10;;
4758;SDS011;2393;50.560;12.636;2023-06-22T10:54:59;8.27;;;4.43;;
4758;SDS011;2393;50.560;12.636;2023-06-22T10:57:27;5.90;;;4.60;;
4758;SDS011;2393;50.560;12.636;2023-06-22T10:59:55;4.90;;;4.33;;
4758;SDS011;2393;50.560;12.636;2023-06-22T11:02:23;6.17;;;4.87;;
4758;SDS011;2393;50.560;12.636;2023-06-22T11:04:51;4.73;;;4.20;;
4758;SDS011;2393;50.560;12.636;2023-06-22T11:07:19;4.57;;;4.20;;
4758;SDS011;2393;50.560;12.636;2023-06-22T11:09:49;8.23;;;4.23;;
4758;SDS011;2393;50.560;12.636;2023-06-22T11:12:17;5.83;;;4.33;;
4758;SDS011;2393;50.560;12.636;2023-06-22T11:14:45;5.67;;;4.80;;
4758;SDS011;2393;50.560;12.636;2023-06-22T11:17:13;5.63;;;4.97;;
4758;SDS011;2393;50.560;12.636;2023-06-22T11:19:41;5.30;;;4.80;;
4758;SDS011;2393;50.560;12.636;2023-06-22T11:22:11;5.97;;;4.57;;
4758;SDS011;2393;50.560;12.636;2023-06-22T11:24:39;5.70;;;5.10;;
4758;SDS011;2393;50.560;12.636;2023-06-22T11:27:09;9.57;;;4.93;;
4758;SDS011;2393;50.560;12.636;2023-06-22T11:29:37;7.50;;;4.67;;
4758;SDS011;2393;50.560;12.636;2023-06-22T11:32:06;12.03;;;5.57;;
4758;SDS011;2393;50.560;12.636;2023-06-22T11:34:37;6.80;;;4.00;;
4758;SDS011;2393;50.560;12.636;2023-06-22T11:37:06;4.87;;;4.37;;
4758;SDS011;2393;50.560;12.636;2023-06-22T11:39:34;14.30;;;4.50;;
4758;SDS011;2393;50.560;12.636;2023-06-22T11:42:09;7.43;;;4.83;;
4758;SDS011;2393;50.560;12.636;2023-06-22T11:44:39;8.23;;;5.43;;
4758;SDS011;2393;50.560;12.636;2023-06-22T11:47:07;6.10;;;5.47;;
4758;SDS011;2393;50.560;12.636;2023-06-22T11:49:35;8.23;;;5.13;;
4758;SDS011;2393;50.560;12.636;2023-06-22T11:52:03;11.07;;;5.40;;
4758;SDS011;2393;50.560;12.636;2023-06-22T11:54:32;7.80;;;5.30;;
4758;SDS011;2393;50.560;12.636;2023-06-22T11:57:00;8.07;;;4.67;;
4758;SDS011;2393;50.560;12.636;2023-06-22T11:59:29;6.23;;;5.60;;
4758;SDS011;2393;50.560;12.636;2023-06-22T12:01:57;10.83;;;5.80;;
4758;SDS011;2393;50.560;12.636;2023-06-22T12:04:25;7.00;;;5.23;;
4758;SDS011;2393;50.560;12.636;2023-06-22T12:06:53;6.87;;;6.17;;
4758;SDS011;2393;50.560;12.636;2023-06-22T12:09:21;11.40;;;6.47;;
4758;SDS011;2393;50.560;12.636;2023-06-22T12:11:49;7.63;;;5.67;;
4758;SDS011;2393;50.560;12.636;2023-06-22T12:14:17;7.73;;;4.77;;
4758;SDS011;2393;50.560;12.636;2023-06-22T12:16:47;9.17;;;6.13;;
4758;SDS011;2393;50.560;12.636;2023-06-22T12:19:15;11.07;;;6.20;;
4758;SDS011;2393;50.560;12.636;2023-06-22T12:21:43;6.13;;;5.53;;
4758;SDS011;2393;50.560;12.636;2023-06-22T12:24:12;13.47;;;5.90;;
4758;SDS011;2393;50.560;12.636;2023-06-22T12:26:40;5.40;;;4.90;;
4758;SDS011;2393;50.560;12.636;2023-06-22T12:29:09;6.33;;;5.07;;
4758;SDS011;2393;50.560;12.636;2023-06-22T12:31:37;7.37;;;5.23;;
4758;SDS011;2393;50.560;12.636;2023-06-22T12:34:07;5.33;;;4.83;;
4758;SDS011;2393;50.560;12.636;2023-06-22T12:36:35;6.50;;;5.47;;
4758;SDS011;2393;50.560;12.636;2023-06-22T12:39:04;15.57;;;7.23;;
4758;SDS011;2393;50.560;12.636;2023-06-22T12:41:32;9.87;;;5.80;;
4758;SDS011;2393;50.560;12.636;2023-06-22T12:44:00;6.43;;;5.80;;
4758;SDS011;2393;50.560;12.636;2023-06-22T12:46:28;8.73;;;6.27;;
4758;SDS011;2393;50.560;12.636;2023-06-22T12:48:57;6.70;;;5.77;;
4758;SDS011;2393;50.560;12.636;2023-06-22T12:51:29;12.53;;;5.83;;
4758;SDS011;2393;50.560;12.636;2023-06-22T12:53:58;6.03;;;5.43;;
4758;SDS011;2393;50.560;12.636;2023-06-22T12:56:25;20.33;;;6.13;;
4758;SDS011;2393;50.560;12.636;2023-06-22T12:58:53;6.83;;;5.30;;
4758;SDS011;2393;50.560;12.636;2023-06-22T13:01:22;7.37;;;5.70;;
4758;SDS011;2393;50.560;12.636;2023-06-22T13:03:50;7.50;;;5.17;;
4758;SDS011;2393;50.560;12.636;2023-06-22T13:06:18;8.73;;;5.10;;
4758;SDS011;2393;50.560;12.636;2023-06-22T13:08:48;6.40;;;5.87;;
4758;SDS011;2393;50.560;12.636;2023-06-22T13:11:19;7.17;;;5.37;;
4758;SDS011;2393;50.560;12.636;2023-06-22T13:13:47;7.17;;;6.00;;
4758;SDS011;2393;50.560;12.636;2023-06-22T13:16:15;7.87;;;5.80;;
4758;SDS011;2393;50.560;12.636;2023-06-22T13:18:43;7.13;;;5.17;;
4758;SDS011;2393;50.560;12.636;2023-06-22T13:21:11;5.53;;;4.80;;
4758;SDS011;2393;50.560;12.636;2023-06-22T13:23:40;5.67;;;4.97;;
4758;SDS011;2393;50.560;12.636;2023-06-22T13:26:10;8.77;;;5.00;;
4758;SDS011;2393;50.560;12.636;2023-06-22T13:28:38;6.40;;;5.70;;
4758;SDS011;2393;50.560;12.636;2023-06-22T13:31:06;5.50;;;4.20;;
4758;SDS011;2393;50.560;12.636;2023-06-22T13:33:37;5.77;;;5.20;;
4758;SDS011;2393;50.560;12.636;2023-06-22T13:36:07;9.20;;;5.83;;
4758;SDS011;2393;50.560;12.636;2023-06-22T13:38:36;6.70;;;5.13;;
4758;SDS011;2393;50.560;12.636;2023-06-22T13:41:06;6.13;;;5.43;;
4758;SDS011;2393;50.560;12.636;2023-06-22T13:43:35;8.20;;;4.43;;
4758;SDS011;2393;50.560;12.636;2023-06-22T13:46:03;5.93;;;4.80;;
4758;SDS011;2393;50.560;12.636;2023-06-22T13:48:32;7.70;;;4.93;;
4758;SDS011;2393;50.560;12.636;2023-06-22T13:51:00;10.80;;;4.47;;
4758;SDS011;2393;50.560;12.636;2023-06-22T13:53:28;9.87;;;4.90;;
4758;SDS011;2393;50.560;12.636;2023-06-22T13:55:56;8.63;;;4.37;;
4758;SDS011;2393;50.560;12.636;2023-06-22T13:58:25;6.67;;;5.37;;
4758;SDS011;2393;50.560;12.636;2023-06-22T14:00:54;7.80;;;5.33;;
4758;SDS011;2393;50.560;12.636;2023-06-22T14:03:22;8.73;;;4.70;;
4758;SDS011;2393;50.560;12.636;2023-06-22T14:05:51;6.53;;;4.73;;
4758;SDS011;2393;50.560;12.636;2023-06-22T14:08:23;6.13;;;4.80;;
4758;SDS011;2393;50.560;12.636;2023-06-22T14:11:07;7.13;;;4.90;;
4758;SDS011;2393;50.560;12.636;2023-06-22T14:13:35;5.63;;;5.03;;
4758;SDS011;2393;50.560;12.636;2023-06-22T14:16:04;23.33;;;5.50;;
4758;SDS011;2393;50.560;12.636;2023-06-22T14:18:33;6.40;;;5.23;;
4758;SDS011;2393;50.560;12.636;2023-06-22T14:21:01;9.23;;;4.50;;
4758;SDS011;2393;50.560;12.636;2023-06-22T14:23:29;7.13;;;4.87;;
4758;SDS011;2393;50.560;12.636;2023-06-22T14:25:57;6.97;;;4.97;;
4758;SDS011;2393;50.560;12.636;2023-06-22T14:28:25;5.73;;;5.23;;
4758;SDS011;2393;50.560;12.636;2023-06-22T14:30:53;10.30;;;5.70;;
4758;SDS011;2393;50.560;12.636;2023-06-22T14:33:24;11.67;;;5.90;;
4758;SDS011;2393;50.560;12.636;2023-06-22T14:35:52;8.33;;;4.90;;
4758;SDS011;2393;50.560;12.636;2023-06-22T14:38:20;10.50;;;6.20;;
4758;SDS011;2393;50.560;12.636;2023-06-22T14:40:48;9.93;;;5.23;;
4758;SDS011;2393;50.560;12.636;2023-06-22T14:43:35;11.70;;;5.03;;
4758;SDS011;2393;50.560;12.636;2023-06-22T14:46:03;14.20;;;5.50;;
4758;SDS011;2393;50.560;12.636;2023-06-22T14:48:33;11.40;;;5.70;;
4758;SDS011;2393;50.560;12.636;2023-06-22T14:51:01;5.00;;;4.50;;
4758;SDS011;2393;50.560;12.636;2023-06-22T14:53:29;11.03;;;5.40;;
4758;SDS011;2393;50.560;12.636;2023-06-22T14:55:57;8.20;;;5.40;;
4758;SDS011;2393;50.560;12.636;2023-06-22T14:58:27;9.37;;;5.47;;
4758;SDS011;2393;50.560;12.636;2023-06-22T15:00:56;15.00;;;6.07;;
4758;SDS011;2393;50.560;12.636;2023-06-22T15:03:24;14.30;;;4.80;;
4758;SDS011;2393;50.560;12.636;2023-06-22T15:05:56;10.30;;;5.50;;
4758;SDS011;2393;50.560;12.636;2023-06-22T15:08:24;8.10;;;5.40;;
4758;SDS011;2393;50.560;12.636;2023-06-22T15:10:52;6.30;;;4.97;;
4758;SDS011;2393;50.560;12.636;2023-06-22T15:13:21;11.67;;;5.10;;